createdAt,value
2023-05-01T00:00:38.427Z,0.00
2023-05-01T00:01:38.762Z,0.00
2023-05-01T00:02:38.532Z,0.00
2023-05-01T00:03:38.608Z,0.00
2023-05-01T00:04:38.449Z,0.00
2023-05-01T00:05:38.426Z,0.00
2023-05-01T00:06:38.443Z,0.00
2023-05-01T00:07:38.424Z,0.00
2023-05-01T00:08:38.416Z,0.00
2023-05-01T00:09:38.416Z,0.00
2023-05-01T00:10:38.406Z,0.00
2023-05-01T00:11:38.417Z,0.00
2023-05-01T00:12:38.401Z,0.00
2023-05-01T00:13:38.422Z,0.00
2023-05-01T00:14:38.401Z,0.00
2023-05-01T00:15:38.402Z,0.00
2023-05-01T00:16:38.454Z,0.00
2023-05-01T00:17:38.531Z,0.00
2023-05-01T00:18:38.397Z,0.00
2023-05-01T00:19:38.393Z,0.00
2023-05-01T00:20:38.403Z,0.00
2023-05-01T00:21:38.417Z,0.00
2023-05-01T00:22:38.386Z,0.00
2023-05-01T00:23:38.391Z,0.00
2023-05-01T00:24:38.381Z,0.00
2023-05-01T00:25:38.385Z,0.00
2023-05-01T00:26:38.388Z,0.00
2023-05-01T00:27:38.391Z,0.00
2023-05-01T00:28:38.387Z,0.00
2023-05-01T00:29:38.374Z,0.00
2023-05-01T00:30:38.379Z,0.00
2023-05-01T00:31:38.431Z,0.00
2023-05-01T00:32:38.382Z,0.00
2023-05-01T00:33:38.394Z,0.00
2023-05-01T00:34:38.366Z,0.00
2023-05-01T00:35:38.370Z,0.00
2023-05-01T00:36:38.375Z,0.00
2023-05-01T00:37:38.367Z,0.00
2023-05-01T00:38:38.357Z,0.00
2023-05-01T00:39:38.372Z,0.00
2023-05-01T00:40:38.658Z,0.00
2023-05-01T00:41:38.366Z,0.00
2023-05-01T00:42:38.352Z,0.00
2023-05-01T00:43:38.362Z,0.00
2023-05-01T00:44:38.360Z,0.00
2023-05-01T00:45:38.449Z,0.00
2023-05-01T00:46:38.348Z,0.00
2023-05-01T00:47:38.395Z,0.00
2023-05-01T00:48:38.341Z,0.00
2023-05-01T00:49:38.361Z,0.00
2023-05-01T00:50:38.337Z,0.00
2023-05-01T00:51:38.339Z,0.00
2023-05-01T00:52:38.331Z,0.00
2023-05-01T00:53:38.336Z,0.00
2023-05-01T00:54:38.332Z,0.00
2023-05-01T00:55:38.333Z,0.00
2023-05-01T00:56:38.322Z,0.00
2023-05-01T00:57:38.331Z,0.00
2023-05-01T00:58:38.323Z,0.00
2023-05-01T00:59:38.322Z,0.00
2023-05-01T01:00:38.318Z,0.00
2023-05-01T01:01:38.408Z,0.00
2023-05-01T01:02:38.332Z,0.00
2023-05-01T01:03:38.322Z,0.00
2023-05-01T01:04:38.351Z,0.00
2023-05-01T01:05:38.328Z,0.00
2023-05-01T01:06:38.396Z,0.00
2023-05-01T01:07:38.312Z,0.00
2023-05-01T01:08:38.305Z,0.00
2023-05-01T01:09:38.299Z,0.00
2023-05-01T01:10:38.290Z,0.00
2023-05-01T01:11:38.297Z,0.00
2023-05-01T01:12:38.291Z,0.00
2023-05-01T01:13:38.312Z,0.00
2023-05-01T01:14:38.284Z,0.00
2023-05-01T01:15:38.284Z,0.00
2023-05-01T01:16:38.337Z,0.00
2023-05-01T01:17:38.291Z,0.00
2023-05-01T01:18:38.284Z,0.00
2023-05-01T01:19:38.279Z,0.00
2023-05-01T01:20:38.271Z,0.00
2023-05-01T01:21:38.294Z,0.00
2023-05-01T01:22:38.284Z,0.00
2023-05-01T01:23:38.282Z,0.00
2023-05-01T01:24:38.266Z,0.00
2023-05-01T01:25:38.262Z,0.00
2023-05-01T01:26:38.258Z,0.00
2023-05-01T01:27:38.261Z,0.00
2023-05-01T01:28:38.259Z,0.00
2023-05-01T01:29:38.252Z,0.00
2023-05-01T01:30:38.248Z,0.00
2023-05-01T01:31:38.335Z,0.00
2023-05-01T01:32:38.270Z,0.00
2023-05-01T01:33:38.244Z,0.00
2023-05-01T01:34:38.238Z,0.00
2023-05-01T01:35:38.247Z,0.00
2023-05-01T01:36:38.243Z,0.00
2023-05-01T01:37:38.256Z,0.00
2023-05-01T01:38:38.237Z,0.00
2023-05-01T01:39:38.239Z,0.00
2023-05-01T01:40:38.232Z,0.00
2023-05-01T01:41:38.227Z,0.00
2023-05-01T01:42:38.223Z,0.00
2023-05-01T01:43:38.224Z,0.00
2023-05-01T01:44:38.222Z,0.00
2023-05-01T01:45:38.217Z,0.00
2023-05-01T01:46:38.303Z,0.00
2023-05-01T01:47:38.258Z,0.00
2023-05-01T01:48:38.215Z,0.00
2023-05-01T01:49:38.249Z,0.00
2023-05-01T01:50:38.205Z,0.00
2023-05-01T01:51:38.211Z,0.00
2023-05-01T01:52:38.208Z,0.00
2023-05-01T01:53:38.226Z,0.00
2023-05-01T01:54:38.217Z,0.00
2023-05-01T01:55:38.203Z,0.00
2023-05-01T01:56:38.197Z,0.00
2023-05-01T01:57:38.196Z,0.00
2023-05-01T01:58:38.196Z,0.00
2023-05-01T01:59:38.190Z,0.00
2023-05-01T02:00:38.196Z,0.00
2023-05-01T02:01:38.202Z,0.00
2023-05-01T02:02:38.319Z,0.00
2023-05-01T02:03:38.298Z,0.00
2023-05-01T02:04:38.173Z,0.00
2023-05-01T02:05:38.173Z,0.00
2023-05-01T02:06:38.278Z,0.00
2023-05-01T02:07:38.175Z,0.00
2023-05-01T02:08:38.165Z,0.00
2023-05-01T02:09:38.195Z,0.00
2023-05-01T02:10:38.160Z,0.00
2023-05-01T02:11:38.184Z,0.00
2023-05-01T02:12:38.161Z,0.00
2023-05-01T02:13:38.159Z,0.00
2023-05-01T02:14:38.158Z,0.00
2023-05-01T02:15:38.152Z,0.00
2023-05-01T02:16:38.225Z,0.00
2023-05-01T02:17:38.212Z,0.00
2023-05-01T02:18:38.148Z,0.00
2023-05-01T02:19:38.158Z,0.00
2023-05-01T02:20:38.156Z,0.00
2023-05-01T02:21:38.140Z,0.00
2023-05-01T02:22:38.134Z,0.00
2023-05-01T02:23:38.140Z,0.00
2023-05-01T02:24:38.135Z,0.00
2023-05-01T02:25:38.514Z,0.00
2023-05-01T02:26:38.133Z,0.00
2023-05-01T02:27:38.138Z,0.00
2023-05-01T02:28:38.124Z,0.00
2023-05-01T02:29:38.152Z,0.00
2023-05-01T02:30:38.118Z,0.00
2023-05-01T02:31:38.157Z,0.00
2023-05-01T02:32:38.169Z,0.00
2023-05-01T02:33:38.127Z,0.00
2023-05-01T02:34:38.125Z,0.00
2023-05-01T02:35:38.114Z,0.00
2023-05-01T02:36:38.100Z,0.00
2023-05-01T02:37:38.103Z,0.00
2023-05-01T02:38:38.100Z,0.00
2023-05-01T02:39:38.102Z,0.00
2023-05-01T02:40:38.095Z,0.00
2023-05-01T02:41:38.113Z,0.00
2023-05-01T02:42:38.091Z,0.00
2023-05-01T02:43:38.091Z,0.00
2023-05-01T02:44:38.083Z,0.00
2023-05-01T02:45:38.157Z,0.00
2023-05-01T02:46:38.173Z,0.00
2023-05-01T02:47:38.115Z,0.00
2023-05-01T02:48:38.073Z,0.00
2023-05-01T02:49:38.073Z,0.00
2023-05-01T02:50:38.071Z,0.00
2023-05-01T02:51:38.066Z,0.00
2023-05-01T02:52:38.092Z,0.00
2023-05-01T02:53:38.068Z,0.00
2023-05-01T02:54:38.062Z,0.00
2023-05-01T02:55:38.077Z,0.00
2023-05-01T02:56:38.059Z,0.00
2023-05-01T02:57:38.083Z,0.00
2023-05-01T02:58:38.047Z,0.00
2023-05-01T02:59:38.050Z,0.00
2023-05-01T03:00:38.044Z,0.00
2023-05-01T03:01:38.142Z,0.00
2023-05-01T03:02:38.092Z,0.00
2023-05-01T03:03:38.037Z,0.00
2023-05-01T03:04:38.214Z,0.00
2023-05-01T03:05:38.042Z,0.00
2023-05-01T03:06:38.119Z,0.00
2023-05-01T03:07:38.030Z,0.00
2023-05-01T03:08:38.037Z,0.00
2023-05-01T03:09:38.027Z,0.00
2023-05-01T03:10:38.024Z,0.00
2023-05-01T03:11:38.027Z,0.00
2023-05-01T03:12:38.018Z,0.00
2023-05-01T03:13:38.033Z,0.00
2023-05-01T03:14:38.022Z,0.00
2023-05-01T03:15:38.020Z,0.00
2023-05-01T03:16:38.081Z,0.00
2023-05-01T03:17:38.042Z,0.00
2023-05-01T03:18:38.007Z,0.00
2023-05-01T03:19:38.006Z,0.00
2023-05-01T03:20:37.991Z,0.00
2023-05-01T03:21:37.992Z,0.00
2023-05-01T03:22:38.038Z,0.00
2023-05-01T03:23:37.986Z,0.00
2023-05-01T03:24:37.982Z,0.00
2023-05-01T03:25:37.979Z,0.00
2023-05-01T03:26:37.975Z,0.00
2023-05-01T03:27:37.971Z,0.00
2023-05-01T03:28:37.974Z,0.00
2023-05-01T03:29:38.004Z,0.00
2023-05-01T03:30:37.963Z,0.00
2023-05-01T03:31:37.996Z,5.63
2023-05-01T03:32:37.970Z,5.63
2023-05-01T03:33:37.952Z,5.63
2023-05-01T03:34:37.958Z,5.63
2023-05-01T03:35:38.077Z,5.63
2023-05-01T03:36:37.951Z,5.63
2023-05-01T03:37:37.943Z,5.63
2023-05-01T03:38:37.943Z,5.63
2023-05-01T03:39:37.934Z,5.63
2023-05-01T03:40:37.936Z,11.25
2023-05-01T03:41:37.928Z,11.25
2023-05-01T03:42:37.928Z,11.25
2023-05-01T03:43:37.927Z,11.25
2023-05-01T03:44:37.925Z,11.25
2023-05-01T03:45:37.939Z,16.88
2023-05-01T03:46:37.998Z,16.88
2023-05-01T03:47:37.940Z,16.88
2023-05-01T03:48:37.918Z,16.88
2023-05-01T03:49:37.899Z,16.88
2023-05-01T03:50:37.907Z,22.50
2023-05-01T03:51:37.916Z,22.50
2023-05-01T03:52:37.925Z,22.50
2023-05-01T03:53:37.901Z,22.50
2023-05-01T03:54:37.899Z,28.13
2023-05-01T03:55:37.898Z,28.13
2023-05-01T03:56:37.895Z,28.13
2023-05-01T03:57:37.887Z,28.13
2023-05-01T03:58:37.892Z,28.13
2023-05-01T03:59:37.881Z,33.75
2023-05-01T04:00:37.884Z,33.75
2023-05-01T04:01:37.910Z,33.75
2023-05-01T04:02:37.932Z,33.75
2023-05-01T04:03:37.964Z,33.75
2023-05-01T04:04:37.913Z,39.38
2023-05-01T04:05:37.872Z,39.38
2023-05-01T04:06:37.936Z,39.38
2023-05-01T04:07:37.856Z,39.38
2023-05-01T04:08:37.860Z,39.38
2023-05-01T04:09:37.855Z,39.38
2023-05-01T04:10:37.861Z,45.00
2023-05-01T04:11:37.854Z,45.00
2023-05-01T04:12:37.851Z,45.00
2023-05-01T04:13:37.845Z,45.00
2023-05-01T04:14:37.847Z,45.00
2023-05-01T04:15:37.894Z,50.63
2023-05-01T04:16:37.946Z,50.63
2023-05-01T04:17:37.880Z,50.63
2023-05-01T04:18:37.838Z,50.63
2023-05-01T04:19:37.829Z,50.63
2023-05-01T04:20:37.828Z,56.25
2023-05-01T04:21:37.822Z,56.25
2023-05-01T04:22:37.826Z,56.25
2023-05-01T04:23:37.815Z,56.25
2023-05-01T04:24:37.826Z,61.88
2023-05-01T04:25:37.815Z,61.88
2023-05-01T04:26:37.834Z,61.88
2023-05-01T04:27:37.806Z,61.88
2023-05-01T04:28:37.812Z,61.88
2023-05-01T04:29:37.798Z,61.88
2023-05-01T04:30:37.802Z,67.50
2023-05-01T04:31:37.827Z,67.50
2023-05-01T04:32:37.841Z,67.50
2023-05-01T04:33:37.806Z,67.50
2023-05-01T04:34:37.792Z,67.50
2023-05-01T04:35:37.788Z,67.50
2023-05-01T04:36:37.786Z,67.50
2023-05-01T04:37:37.783Z,67.50
2023-05-01T04:38:37.804Z,67.50
2023-05-01T04:39:37.790Z,67.50
2023-05-01T04:40:37.784Z,73.13
2023-05-01T04:41:37.769Z,73.13
2023-05-01T04:42:37.766Z,73.13
2023-05-01T04:43:37.775Z,73.13
2023-05-01T04:44:37.772Z,73.13
2023-05-01T04:45:37.756Z,73.13
2023-05-01T04:46:37.789Z,73.13
2023-05-01T04:47:37.808Z,73.13
2023-05-01T04:48:37.753Z,73.13
2023-05-01T04:49:37.774Z,73.13
2023-05-01T04:50:37.784Z,73.13
2023-05-01T04:51:37.743Z,73.13
2023-05-01T04:52:37.744Z,73.13
2023-05-01T04:53:37.738Z,73.13
2023-05-01T04:54:37.734Z,73.13
2023-05-01T04:55:37.744Z,73.13
2023-05-01T04:56:37.740Z,73.13
2023-05-01T04:57:37.728Z,73.13
2023-05-01T04:58:37.730Z,73.13
2023-05-01T04:59:37.721Z,73.13
2023-05-01T05:00:37.718Z,73.13
2023-05-01T05:01:37.811Z,73.13
2023-05-01T05:02:37.815Z,78.75
2023-05-01T05:03:37.852Z,78.75
2023-05-01T05:04:37.712Z,78.75
2023-05-01T05:05:37.727Z,78.75
2023-05-01T05:06:37.816Z,78.75
2023-05-01T05:07:37.698Z,78.75
2023-05-01T05:08:37.732Z,84.38
2023-05-01T05:09:37.702Z,84.38
2023-05-01T05:10:37.698Z,84.38
2023-05-01T05:11:37.696Z,84.38
2023-05-01T05:12:37.699Z,84.38
2023-05-01T05:13:37.700Z,84.38
2023-05-01T05:14:37.683Z,90.00
2023-05-01T05:15:37.686Z,90.00
2023-05-01T05:16:37.809Z,90.00
2023-05-01T05:17:37.740Z,90.00
2023-05-01T05:18:37.673Z,90.00
2023-05-01T05:19:37.670Z,90.00
2023-05-01T05:20:37.669Z,90.00
2023-05-01T05:21:37.686Z,90.00
2023-05-01T05:22:37.694Z,95.63
2023-05-01T05:23:37.664Z,95.63
2023-05-01T05:24:37.679Z,95.63
2023-05-01T05:25:37.658Z,95.63
2023-05-01T05:26:37.667Z,95.63
2023-05-01T05:27:37.663Z,95.63
2023-05-01T05:28:37.649Z,95.63
2023-05-01T05:29:37.647Z,101.25
2023-05-01T05:30:37.645Z,101.25
2023-05-01T05:31:37.731Z,101.25
2023-05-01T05:32:37.661Z,101.25
2023-05-01T05:33:37.642Z,101.25
2023-05-01T05:34:37.638Z,101.25
2023-05-01T05:35:37.634Z,101.25
2023-05-01T05:36:37.650Z,106.88
2023-05-01T05:37:37.663Z,106.88
2023-05-01T05:38:37.628Z,106.88
2023-05-01T05:39:37.657Z,106.88
2023-05-01T05:40:37.630Z,112.50
2023-05-01T05:41:37.619Z,112.50
2023-05-01T05:42:37.621Z,112.50
2023-05-01T05:43:37.619Z,118.13
2023-05-01T05:44:37.616Z,118.13
2023-05-01T05:45:37.706Z,118.13
2023-05-01T05:46:37.732Z,118.13
2023-05-01T05:47:37.690Z,118.13
2023-05-01T05:48:37.611Z,123.75
2023-05-01T05:49:37.613Z,123.75
2023-05-01T05:50:37.625Z,123.75
2023-05-01T05:51:37.604Z,123.75
2023-05-01T05:52:37.607Z,123.75
2023-05-01T05:53:37.645Z,129.38
2023-05-01T05:54:37.609Z,129.38
2023-05-01T05:55:37.596Z,129.38
2023-05-01T05:56:37.607Z,129.38
2023-05-01T05:57:37.611Z,129.38
2023-05-01T05:58:37.586Z,129.38
2023-05-01T05:59:37.584Z,129.38
2023-05-01T06:00:37.609Z,129.38
2023-05-01T06:01:37.576Z,135.00
2023-05-01T06:02:37.718Z,135.00
2023-05-01T06:03:37.705Z,135.00
2023-05-01T06:04:37.577Z,135.00
2023-05-01T06:05:37.605Z,140.63
2023-05-01T06:06:37.609Z,140.63
2023-05-01T06:07:37.577Z,140.63
2023-05-01T06:08:37.670Z,140.63
2023-05-01T06:09:37.585Z,146.25
2023-05-01T06:10:37.565Z,146.25
2023-05-01T06:11:37.567Z,146.25
2023-05-01T06:12:37.691Z,151.88
2023-05-01T06:13:37.561Z,151.88
2023-05-01T06:14:37.559Z,157.50
2023-05-01T06:15:37.702Z,157.50
2023-05-01T06:16:37.730Z,157.50
2023-05-01T06:17:37.670Z,163.13
2023-05-01T06:18:37.555Z,163.13
2023-05-01T06:19:37.555Z,168.75
2023-05-01T06:20:37.557Z,168.75
2023-05-01T06:21:37.577Z,174.38
2023-05-01T06:22:37.560Z,168.75
2023-05-01T06:23:37.546Z,168.75
2023-05-01T06:24:37.547Z,174.38
2023-05-01T06:25:37.576Z,174.38
2023-05-01T06:26:37.558Z,174.38
2023-05-01T06:27:37.536Z,180.00
2023-05-01T06:28:37.539Z,180.00
2023-05-01T06:29:37.538Z,180.00
2023-05-01T06:30:37.546Z,185.63
2023-05-01T06:31:37.555Z,185.63
2023-05-01T06:32:37.577Z,191.25
2023-05-01T06:33:37.529Z,191.25
2023-05-01T06:34:37.530Z,191.25
2023-05-01T06:35:37.528Z,191.25
2023-05-01T06:36:37.531Z,191.25
2023-05-01T06:37:37.526Z,196.88
2023-05-01T06:38:37.522Z,202.50
2023-05-01T06:39:37.523Z,196.88
2023-05-01T06:40:37.523Z,202.50
2023-05-01T06:41:37.644Z,202.50
2023-05-01T06:42:37.516Z,202.50
2023-05-01T06:43:37.521Z,208.13
2023-05-01T06:44:37.526Z,213.75
2023-05-01T06:45:37.522Z,213.75
2023-05-01T06:46:37.591Z,219.38
2023-05-01T06:47:37.564Z,225.00
2023-05-01T06:48:37.539Z,225.00
2023-05-01T06:49:37.514Z,230.63
2023-05-01T06:50:37.516Z,236.25
2023-05-01T06:51:37.509Z,241.88
2023-05-01T06:52:37.516Z,241.88
2023-05-01T06:53:37.508Z,247.50
2023-05-01T06:54:37.516Z,253.13
2023-05-01T06:55:37.503Z,258.75
2023-05-01T06:56:37.530Z,258.75
2023-05-01T06:57:37.531Z,264.38
2023-05-01T06:58:37.511Z,275.63
2023-05-01T06:59:37.504Z,281.25
2023-05-01T07:00:37.535Z,281.25
2023-05-01T07:01:37.516Z,286.88
2023-05-01T07:02:37.578Z,286.88
2023-05-01T07:03:37.574Z,292.50
2023-05-01T07:04:37.515Z,298.13
2023-05-01T07:05:37.502Z,298.13
2023-05-01T07:06:37.652Z,298.13
2023-05-01T07:07:40.309Z,303.75
2023-05-01T07:08:37.508Z,337.50
2023-05-01T07:09:37.506Z,337.50
2023-05-01T07:10:38.251Z,337.50
2023-05-01T07:11:37.510Z,337.50
2023-05-01T07:12:37.510Z,337.50
2023-05-01T07:13:37.535Z,343.13
2023-05-01T07:14:37.513Z,354.38
2023-05-01T07:15:37.502Z,360.00
2023-05-01T07:16:37.549Z,365.63
2023-05-01T07:17:37.519Z,376.88
2023-05-01T07:18:37.506Z,388.13
2023-05-01T07:19:37.514Z,405.00
2023-05-01T07:20:37.513Z,416.25
2023-05-01T07:21:37.514Z,427.50
2023-05-01T07:22:37.524Z,433.13
2023-05-01T07:23:37.512Z,444.38
2023-05-01T07:24:37.515Z,438.75
2023-05-01T07:25:37.518Z,455.63
2023-05-01T07:26:37.514Z,483.75
2023-05-01T07:27:37.520Z,511.88
2023-05-01T07:28:37.509Z,534.38
2023-05-01T07:29:37.529Z,551.25
2023-05-01T07:30:37.527Z,579.38
2023-05-01T07:31:37.569Z,601.88
2023-05-01T07:32:37.525Z,618.75
2023-05-01T07:33:37.511Z,641.25
2023-05-01T07:34:37.514Z,646.88
2023-05-01T07:35:37.518Z,675.00
2023-05-01T07:36:37.521Z,686.25
2023-05-01T07:37:37.511Z,691.88
2023-05-01T07:38:37.525Z,708.75
2023-05-01T07:39:37.520Z,663.75
2023-05-01T07:40:37.520Z,697.50
2023-05-01T07:41:37.515Z,731.25
2023-05-01T07:42:37.535Z,736.88
2023-05-01T07:43:37.527Z,776.25
2023-05-01T07:44:37.528Z,765.00
2023-05-01T07:45:37.564Z,843.75
2023-05-01T07:46:37.699Z,905.63
2023-05-01T07:47:37.564Z,933.75
2023-05-01T07:48:38.936Z,956.25
2023-05-01T07:49:37.544Z,984.38
2023-05-01T07:50:37.536Z,1029.38
2023-05-01T07:51:37.550Z,1023.75
2023-05-01T07:52:37.543Z,1018.13
2023-05-01T07:53:37.544Z,1068.75
2023-05-01T07:54:37.553Z,1181.25
2023-05-01T07:55:37.551Z,1653.75
2023-05-01T07:56:37.547Z,1563.75
2023-05-01T07:57:37.569Z,1580.63
2023-05-01T07:58:37.587Z,1648.13
2023-05-01T07:59:37.560Z,1231.88
2023-05-01T08:00:37.566Z,1704.38
2023-05-01T08:01:37.603Z,2053.13
2023-05-01T08:02:37.669Z,1940.63
2023-05-01T08:03:37.777Z,2030.63
2023-05-01T08:04:37.660Z,2154.38
2023-05-01T08:05:37.586Z,2160.00
2023-05-01T08:06:37.681Z,2334.38
2023-05-01T08:07:37.591Z,2694.38
2023-05-01T08:08:37.604Z,2784.38
2023-05-01T08:09:37.593Z,3009.38
2023-05-01T08:10:37.592Z,2981.25
2023-05-01T08:11:37.608Z,3082.50
2023-05-01T08:12:37.608Z,2986.88
2023-05-01T08:13:37.625Z,2790.00
2023-05-01T08:14:37.622Z,2480.63
2023-05-01T08:15:37.660Z,2632.50
2023-05-01T08:16:37.677Z,2671.88
2023-05-01T08:17:37.681Z,2705.63
2023-05-01T08:18:37.631Z,2767.50
2023-05-01T08:19:37.639Z,2874.38
2023-05-01T08:20:37.642Z,2908.13
2023-05-01T08:21:37.647Z,3009.38
2023-05-01T08:22:37.647Z,2874.38
2023-05-01T08:23:37.662Z,2981.25
2023-05-01T08:24:37.661Z,2846.25
2023-05-01T08:25:37.664Z,3076.88
2023-05-01T08:26:37.673Z,3448.13
2023-05-01T08:27:37.681Z,3318.75
2023-05-01T08:28:37.695Z,2891.25
2023-05-01T08:29:37.683Z,2233.13
2023-05-01T08:30:37.684Z,1873.13
2023-05-01T08:31:37.811Z,2300.63
2023-05-01T08:32:37.710Z,1968.75
2023-05-01T08:33:37.736Z,1490.63
2023-05-01T08:34:37.710Z,1226.25
2023-05-01T08:35:37.721Z,1175.63
2023-05-01T08:36:37.719Z,1158.75
2023-05-01T08:37:37.724Z,1175.63
2023-05-01T08:38:37.734Z,1175.63
2023-05-01T08:39:37.735Z,1113.75
2023-05-01T08:40:37.760Z,1153.13
2023-05-01T08:41:37.772Z,1158.75
2023-05-01T08:42:37.758Z,1164.38
2023-05-01T08:43:37.758Z,1158.75
2023-05-01T08:44:37.765Z,1636.88
2023-05-01T08:45:37.983Z,1811.25
2023-05-01T08:46:37.883Z,1659.38
2023-05-01T08:47:37.873Z,1524.38
2023-05-01T08:48:37.784Z,1344.38
2023-05-01T08:49:37.821Z,1215.00
2023-05-01T08:50:37.811Z,1175.63
2023-05-01T08:51:37.801Z,1254.38
2023-05-01T08:52:37.814Z,1996.88
2023-05-01T08:53:37.818Z,2711.25
2023-05-01T08:54:37.818Z,2857.50
2023-05-01T08:55:37.841Z,3110.63
2023-05-01T08:56:37.839Z,3425.63
2023-05-01T08:57:37.847Z,3718.13
2023-05-01T08:58:37.857Z,3678.75
2023-05-01T08:59:37.859Z,4173.75
2023-05-01T09:00:37.863Z,4241.25
2023-05-01T09:01:38.073Z,4291.88
2023-05-01T09:02:38.013Z,3971.25
2023-05-01T09:03:37.946Z,3723.75
2023-05-01T09:04:37.912Z,3633.75
2023-05-01T09:05:37.925Z,3262.50
2023-05-01T09:06:37.954Z,2936.25
2023-05-01T09:07:37.930Z,2846.25
2023-05-01T09:08:37.933Z,3020.63
2023-05-01T09:09:37.955Z,3279.38
2023-05-01T09:10:37.951Z,3684.38
2023-05-01T09:11:37.970Z,3768.75
2023-05-01T09:12:37.974Z,3808.13
2023-05-01T09:13:37.993Z,3830.63
2023-05-01T09:14:38.003Z,3510.00
2023-05-01T09:15:38.013Z,3110.63
2023-05-01T09:16:38.035Z,3341.25
2023-05-01T09:17:38.103Z,3330.00
2023-05-01T09:18:38.051Z,3228.75
2023-05-01T09:19:38.060Z,3335.63
2023-05-01T09:20:38.061Z,3678.75
2023-05-01T09:21:38.098Z,3605.63
2023-05-01T09:22:38.088Z,3324.38
2023-05-01T09:23:38.101Z,4275.00
2023-05-01T09:24:38.126Z,4753.13
2023-05-01T09:25:38.132Z,4291.88
2023-05-01T09:26:38.195Z,3735.00
2023-05-01T09:27:38.163Z,3571.88
2023-05-01T09:28:38.163Z,3988.13
2023-05-01T09:29:38.183Z,4207.50
2023-05-01T09:30:38.200Z,4359.38
2023-05-01T09:31:38.261Z,4561.88
2023-05-01T09:32:39.644Z,4826.25
2023-05-01T09:33:38.237Z,4888.13
2023-05-01T09:34:38.242Z,4983.75
2023-05-01T09:35:38.261Z,5068.13
2023-05-01T09:36:38.274Z,5293.13
2023-05-01T09:37:38.316Z,5523.75
2023-05-01T09:38:38.295Z,5692.50
2023-05-01T09:39:38.319Z,5602.50
2023-05-01T09:40:38.326Z,5675.63
2023-05-01T09:41:38.349Z,5703.75
2023-05-01T09:42:38.362Z,5450.63
2023-05-01T09:43:38.381Z,5310.00
2023-05-01T09:44:38.390Z,5304.38
2023-05-01T09:45:38.426Z,5276.25
2023-05-01T09:46:38.539Z,5315.63
2023-05-01T09:47:38.502Z,5388.75
2023-05-01T09:48:38.457Z,5259.38
2023-05-01T09:49:38.471Z,5242.50
2023-05-01T09:50:38.490Z,5298.75
2023-05-01T09:51:38.507Z,5506.88
2023-05-01T09:52:38.527Z,5647.50
2023-05-01T09:53:38.559Z,5377.50
2023-05-01T09:54:38.594Z,5433.75
2023-05-01T09:55:38.580Z,5411.25
2023-05-01T09:56:38.598Z,5574.38
2023-05-01T09:57:38.608Z,5664.38
2023-05-01T09:58:38.628Z,5698.13
2023-05-01T09:59:38.643Z,5810.63
2023-05-01T10:00:38.667Z,5928.75
2023-05-01T10:01:38.738Z,5878.13
2023-05-01T10:02:38.839Z,5726.25
2023-05-01T10:03:38.993Z,5433.75
2023-05-01T10:04:38.737Z,5304.38
2023-05-01T10:05:38.766Z,5388.75
2023-05-01T10:06:38.971Z,5220.00
2023-05-01T10:07:38.805Z,5456.25
2023-05-01T10:08:38.817Z,5265.00
2023-05-01T10:09:38.911Z,5439.38
2023-05-01T10:10:38.852Z,5529.38
2023-05-01T10:11:38.875Z,5546.25
2023-05-01T10:12:38.904Z,5467.50
2023-05-01T10:13:38.917Z,5805.00
2023-05-01T10:14:38.934Z,5911.88
2023-05-01T10:15:38.965Z,5844.38
2023-05-01T10:16:39.161Z,5715.00
2023-05-01T10:17:39.058Z,5956.88
2023-05-01T10:18:39.027Z,6148.13
2023-05-01T10:19:39.034Z,5799.38
2023-05-01T10:20:39.059Z,5776.88
2023-05-01T10:21:39.111Z,5883.75
2023-05-01T10:22:39.099Z,5805.00
2023-05-01T10:23:39.120Z,5107.50
2023-05-01T10:24:39.138Z,5422.50
2023-05-01T10:25:39.185Z,5608.13
2023-05-01T10:26:39.183Z,5400.00
2023-05-01T10:27:39.208Z,5321.25
2023-05-01T10:28:39.231Z,5473.13
2023-05-01T10:29:39.246Z,5321.25
2023-05-01T10:30:39.289Z,5220.00
2023-05-01T10:31:41.483Z,5186.25
2023-05-01T10:32:39.333Z,5197.50
2023-05-01T10:33:39.332Z,5506.88
2023-05-01T10:34:39.358Z,5518.13
2023-05-01T10:35:39.375Z,5276.25
2023-05-01T10:36:39.404Z,5186.25
2023-05-01T10:37:39.428Z,5175.00
2023-05-01T10:38:39.460Z,5332.50
2023-05-01T10:39:39.467Z,4989.38
2023-05-01T10:40:39.530Z,5383.13
2023-05-01T10:41:39.528Z,5236.88
2023-05-01T10:42:39.574Z,4871.25
2023-05-01T10:43:39.568Z,4899.38
2023-05-01T10:44:39.607Z,4837.50
2023-05-01T10:45:39.593Z,4741.88
2023-05-01T10:46:39.659Z,4612.50
2023-05-01T10:47:39.655Z,4910.63
2023-05-01T10:48:39.717Z,5113.13
2023-05-01T10:49:39.684Z,5377.50
2023-05-01T10:50:39.705Z,5523.75
2023-05-01T10:51:39.733Z,5506.88
2023-05-01T10:52:39.745Z,5585.63
2023-05-01T10:53:39.789Z,5360.63
2023-05-01T10:54:39.790Z,5068.13
2023-05-01T10:55:39.830Z,4933.13
2023-05-01T10:56:39.839Z,5208.75
2023-05-01T10:57:39.909Z,5298.75
2023-05-01T10:58:39.880Z,5360.63
2023-05-01T10:59:39.919Z,4663.13
2023-05-01T11:00:39.927Z,4623.75
2023-05-01T11:01:40.173Z,4314.38
2023-05-01T11:02:40.073Z,4595.63
2023-05-01T11:03:40.000Z,4938.75
2023-05-01T11:04:40.019Z,5231.25
2023-05-01T11:05:40.093Z,5158.13
2023-05-01T11:06:40.226Z,5529.38
2023-05-01T11:07:40.094Z,5591.25
2023-05-01T11:08:40.111Z,5490.00
2023-05-01T11:09:40.136Z,5371.88
2023-05-01T11:10:40.153Z,5400.00
2023-05-01T11:11:40.186Z,5467.50
2023-05-01T11:12:40.206Z,5760.00
2023-05-01T11:13:40.251Z,6142.50
2023-05-01T11:14:40.251Z,5889.38
2023-05-01T11:15:40.269Z,4893.75
2023-05-01T11:16:40.442Z,4792.50
2023-05-01T11:17:40.369Z,4443.75
2023-05-01T11:18:40.333Z,3532.50
2023-05-01T11:19:40.363Z,2711.25
2023-05-01T11:20:40.390Z,2610.00
2023-05-01T11:21:40.412Z,3493.13
2023-05-01T11:22:40.426Z,3892.50
2023-05-01T11:23:40.456Z,3037.50
2023-05-01T11:24:40.478Z,3712.50
2023-05-01T11:25:40.505Z,3341.25
2023-05-01T11:26:40.523Z,2182.50
2023-05-01T11:27:40.546Z,1366.88
2023-05-01T11:28:40.564Z,1378.13
2023-05-01T11:29:40.608Z,1440.00
2023-05-01T11:30:40.654Z,1378.13
2023-05-01T11:31:40.679Z,1215.00
2023-05-01T11:32:40.680Z,1209.38
2023-05-01T11:33:40.681Z,1321.88
2023-05-01T11:34:40.701Z,1462.50
2023-05-01T11:35:40.720Z,2193.75
2023-05-01T11:36:40.730Z,2193.75
2023-05-01T11:37:40.761Z,2559.38
2023-05-01T11:38:40.767Z,1800.00
2023-05-01T11:39:40.799Z,1535.63
2023-05-01T11:40:40.822Z,2086.88
2023-05-01T11:41:40.825Z,2463.75
2023-05-01T11:42:40.851Z,3043.13
2023-05-01T11:43:40.866Z,3285.00
2023-05-01T11:44:40.882Z,3723.75
2023-05-01T11:45:41.003Z,4246.88
2023-05-01T11:46:40.911Z,5220.00
2023-05-01T11:47:40.989Z,5535.00
2023-05-01T11:48:40.955Z,4798.13
2023-05-01T11:49:40.983Z,5056.88
2023-05-01T11:50:41.004Z,4291.88
2023-05-01T11:51:41.012Z,5332.50
2023-05-01T11:52:41.018Z,5895.00
2023-05-01T11:53:41.042Z,5866.88
2023-05-01T11:54:41.067Z,5743.13
2023-05-01T11:55:41.098Z,5315.63
2023-05-01T11:56:41.105Z,5433.75
2023-05-01T11:57:41.116Z,5461.88
2023-05-01T11:58:41.132Z,5287.50
2023-05-01T11:59:41.152Z,5619.38
2023-05-01T12:00:41.173Z,5670.00
2023-05-01T12:01:41.209Z,5810.63
2023-05-01T12:02:41.312Z,5321.25
2023-05-01T12:03:41.366Z,5731.88
2023-05-01T12:04:41.285Z,6024.38
2023-05-01T12:05:41.266Z,5900.63
2023-05-01T12:06:41.345Z,5748.75
2023-05-01T12:07:41.307Z,5664.38
2023-05-01T12:08:41.326Z,5540.63
2023-05-01T12:09:41.353Z,5793.75
2023-05-01T12:10:41.377Z,5906.25
2023-05-01T12:11:41.394Z,5872.50
2023-05-01T12:12:41.420Z,5540.63
2023-05-01T12:13:41.432Z,5574.38
2023-05-01T12:14:41.455Z,5540.63
2023-05-01T12:15:41.481Z,3948.75
2023-05-01T12:16:41.544Z,4933.13
2023-05-01T12:17:41.578Z,4899.38
2023-05-01T12:18:41.546Z,4488.75
2023-05-01T12:19:41.560Z,3999.38
2023-05-01T12:20:41.608Z,3324.38
2023-05-01T12:21:41.602Z,2632.50
2023-05-01T12:22:41.628Z,1957.50
2023-05-01T12:23:41.652Z,3931.88
2023-05-01T12:24:41.671Z,3965.63
2023-05-01T12:25:41.688Z,3566.25
2023-05-01T12:26:41.714Z,3189.38
2023-05-01T12:27:41.736Z,3240.00
2023-05-01T12:28:41.757Z,3313.13
2023-05-01T12:29:41.795Z,3268.13
2023-05-01T12:30:41.802Z,3431.25
2023-05-01T12:31:41.854Z,3335.63
2023-05-01T12:32:41.872Z,3009.38
2023-05-01T12:33:41.892Z,2801.25
2023-05-01T12:34:41.882Z,2649.38
2023-05-01T12:35:41.914Z,2463.75
2023-05-01T12:36:41.920Z,2401.88